Time;durP1;ratioP1;P1;durP2;ratioP2;P2;SDS_P1;SDS_P2;PMS_P1;PMS_P2;Temp;Humidity;BMP_temperature;BMP_pressure;BME280_temperature;BME280_humidity;BME280_pressure;Samples;Min_cycle;Max_cycle;Signal;HPM_P1;HPM_P2
2022/06/03 00:00:03;;;;;;;3.13;2.93;;;;;;;14.88;82.09;98210.28;5020730;28;20241;-71
2022/06/03 00:02:56;;;;;;;3.70;2.83;;;;;;;14.85;82.46;98214.03;5053938;28;20247;-71
2022/06/03 00:05:55;;;;;;;3.27;2.67;;;;;;;14.83;82.67;98210.69;5048578;28;20222;-71
2022/06/03 00:08:44;;;;;;;4.87;2.90;;;;;;;14.80;82.79;98218.06;5039952;28;20220;-71
2022/06/03 00:11:32;;;;;;;3.40;3.10;;;;;;;14.75;83.10;98212.28;5047733;28;20224;-71
2022/06/03 00:14:31;;;;;;;3.47;2.80;;;;;;;14.72;83.30;98217.88;5047472;28;20219;-71
2022/06/03 00:17:06;;;;;;;4.40;2.90;;;;;;;14.70;83.45;98210.03;5046513;28;20297;-70
2022/06/03 00:20:02;;;;;;;2.90;2.70;;;;;;;14.67;84.01;98206.78;5054215;28;20231;-71
2022/06/03 00:22:55;;;;;;;2.80;2.60;;;;;;;14.64;84.29;98204.38;5050687;28;20214;-71
2022/06/03 00:25:52;;;;;;;2.90;2.70;;;;;;;14.63;84.48;98192.03;5053906;28;20226;-71
2022/06/03 00:28:45;;;;;;;3.40;3.10;;;;;;;14.66;84.12;98199.78;5053836;28;20259;-70
2022/06/03 00:31:25;;;;;;;3.20;2.90;;;;;;;14.66;84.01;98202.44;5053622;28;20670;-70
2022/06/03 00:34:19;;;;;;;2.97;2.77;;;;;;;14.60;82.77;98197.63;5053825;28;20208;-70
2022/06/03 00:37:04;;;;;;;3.47;3.00;;;;;;;14.56;82.49;98190.88;5047504;28;20236;-71
2022/06/03 00:39:55;;;;;;;2.90;2.70;;;;;;;14.52;82.58;98195.63;5046722;28;20223;-71
2022/06/03 00:42:36;;;;;;;2.80;2.60;;;;;;;14.50;82.69;98186.06;5045049;28;20215;-71
2022/06/03 00:45:23;;;;;;;3.57;3.27;;;;;;;14.45;82.92;98199.75;5053386;28;20673;-71
2022/06/03 00:48:04;;;;;;;3.50;2.97;;;;;;;14.42;83.09;98188.53;5051843;28;20214;-71
2022/06/03 00:50:51;;;;;;;3.40;3.10;;;;;;;14.40;83.41;98195.78;5053691;28;20220;-71
2022/06/03 00:53:34;;;;;;;2.90;2.70;;;;;;;14.31;83.60;98196.56;5047051;28;20317;-71
2022/06/03 00:56:28;;;;;;;2.90;2.70;;;;;;;14.32;83.82;98195.59;5053613;28;20222;-71
2022/06/03 00:59:07;;;;;;;3.23;2.80;;;;;;;14.30;84.17;98189.56;5052830;28;20212;-71
2022/06/03 01:01:43;;;;;;;3.20;2.90;;;;;;;14.28;84.18;98196.81;5053176;28;20266;-71
2022/06/03 01:04:36;;;;;;;3.23;2.93;;;;;;;14.24;84.08;98190.91;5053191;28;20222;-71
2022/06/03 01:07:13;;;;;;;3.20;2.90;;;;;;;14.23;83.89;98194.53;5046265;28;20208;-71
2022/06/03 01:10:03;;;;;;;3.13;2.83;;;;;;;14.24;83.53;98182.09;5053279;28;20602;-71
2022/06/03 01:12:58;;;;;;;3.37;2.93;;;;;;;14.24;83.75;98179.44;5052834;28;20234;-71
2022/06/03 01:15:34;;;;;;;3.20;3.00;;;;;;;14.31;83.81;98188.59;5053060;28;20215;-71
2022/06/03 01:18:17;;;;;;;2.90;2.70;;;;;;;14.33;83.59;98173.34;5053267;28;20216;-71
2022/06/03 01:20:56;;;;;;;3.20;2.57;;;;;;;14.29;83.84;98175.41;5053179;28;20237;-71
2022/06/03 01:23:58;;;;;;;3.10;2.83;;;;;;;14.26;84.19;98188.13;5053166;28;20219;-71
2022/06/03 01:26:40;;;;;;;4.13;2.80;;;;;;;14.23;84.51;98188.41;5050784;28;20216;-71
2022/06/03 01:29:29;;;;;;;2.70;2.50;;;;;;;14.22;84.95;98197.31;5053079;28;20212;-71
2022/06/03 01:32:32;;;;;;;2.87;2.67;;;;;;;14.18;84.68;98191.38;5047561;28;20220;-71
2022/06/03 01:35:35;;;;;;;3.20;2.90;;;;;;;14.15;84.36;98190.78;5049364;28;20218;-72
2022/06/03 01:38:09;;;;;;;3.03;2.73;;;;;;;14.14;83.86;98199.72;5052618;28;20610;-72
2022/06/03 01:40:58;;;;;;;3.20;2.90;;;;;;;14.09;83.78;98208.09;5045332;28;20239;-72
2022/06/03 01:43:46;;;;;;;3.20;2.90;;;;;;;14.05;84.13;98206.66;5044798;28;20238;-70
2022/06/03 01:46:29;;;;;;;3.20;2.90;;;;;;;14.03;84.57;98202.41;5052570;28;20215;-70
2022/06/03 01:49:40;;;;;;;3.50;2.90;;;;;;;14.00;85.14;98195.53;5052048;28;20208;-71
2022/06/03 01:52:40;;;;;;;3.10;2.90;;;;;;;14.00;84.91;98194.72;5052851;28;20215;-70
2022/06/03 01:55:39;;;;;;;3.20;3.00;;;;;;;13.99;84.50;98187.72;5043599;28;20212;-71
2022/06/03 01:58:32;;;;;;;3.20;2.90;;;;;;;13.95;85.09;98188.94;5052741;28;20218;-71
2022/06/03 02:01:09;;;;;;;2.60;2.40;;;;;;;13.89;85.50;98192.09;5043363;28;20725;-71
2022/06/03 02:03:50;;;;;;;3.00;2.80;;;;;;;13.84;86.70;98197.78;5052767;28;20212;-71
2022/06/03 02:07:11;;;;;;;3.10;2.80;;;;;;;13.90;86.69;98193.78;5045886;28;20212;-71
2022/06/03 02:10:35;;;;;;;3.10;2.80;;;;;;;13.87;86.65;98191.38;5050138;28;20220;-70
2022/06/03 02:13:39;;;;;;;2.90;2.70;;;;;;;13.83;86.43;98188.13;5045570;28;20303;-71
2022/06/03 02:16:46;;;;;;;3.23;2.93;;;;;;;13.79;87.84;98196.44;5047671;28;20216;-71
2022/06/03 02:19:53;;;;;;;3.30;3.00;;;;;;;13.80;87.92;98188.34;4988252;28;20231;-71
2022/06/03 02:23:02;;;;;;;3.57;3.27;;;;;;;13.81;88.12;98183.91;5050185;28;20216;-71
2022/06/03 02:25:56;;;;;;;3.07;2.87;;;;;;;13.83;88.02;98185.47;5029104;28;20212;-71
2022/06/03 02:30:24;;;;;;;3.07;2.87;;;;;;;13.86;88.05;98184.34;5052019;28;20219;-70
2022/06/03 02:32:01;;;;;;;3.47;3.17;;;;;;;13.87;88.05;98191.38;5049020;28;20215;-71
2022/06/03 02:34:37;;;;;;;3.73;2.80;;;;;;;13.89;88.45;98189.44;5043362;28;20213;-71
2022/06/03 02:37:45;;;;;;;3.30;3.00;;;;;;;13.92;88.74;98187.38;5048443;28;20239;-71
2022/06/03 02:40:30;;;;;;;3.50;3.20;;;;;;;13.94;89.29;98181.94;5051973;28;20693;-71
2022/06/03 02:43:38;;;;;;;3.30;3.10;;;;;;;13.95;89.91;98181.81;5052299;28;20212;-71
2022/06/03 02:46:41;;;;;;;3.40;3.10;;;;;;;14.01;90.39;98185.78;5055031;28;20208;-71
2022/06/03 02:49:50;;;;;;;5.60;3.40;;;;;;;14.03;90.41;98186.47;5056003;28;20220;-71
2022/06/03 02:52:55;;;;;;;4.57;3.60;;;;;;;14.04;91.11;98188.16;5048129;28;20218;-70
2022/06/03 02:55:54;;;;;;;3.70;3.00;;;;;;;13.98;91.53;98186.00;5049061;28;20219;-70
2022/06/03 02:58:41;;;;;;;4.03;3.43;;;;;;;13.94;91.53;98192.56;5047328;28;20216;-70
2022/06/03 03:01:26;;;;;;;3.30;3.00;;;;;;;13.89;91.29;98184.97;5048873;28;20236;-70
2022/06/03 03:04:08;;;;;;;3.47;3.20;;;;;;;13.91;90.88;98184.81;5055761;28;20220;-70
2022/06/03 03:06:57;;;;;;;3.40;3.20;;;;;;;13.85;91.63;98182.66;5055772;28;20320;-70
2022/06/03 03:09:42;;;;;;;5.13;3.53;;;;;;;13.79;92.73;98194.66;5055256;28;20704;-70
2022/06/03 03:12:43;;;;;;;3.93;3.53;;;;;;;13.83;91.92;98201.41;5055562;28;20218;-70
2022/06/03 03:15:42;;;;;;;3.63;3.33;;;;;;;13.82;92.14;98193.56;5051150;28;20219;-70
2022/06/03 03:18:38;;;;;;;3.47;3.17;;;;;;;13.83;92.51;98189.94;5049814;28;20678;-70
2022/06/03 03:21:30;;;;;;;3.80;3.40;;;;;;;13.85;91.99;98182.66;5050923;28;20248;-70
2022/06/03 03:24:27;;;;;;;3.37;3.07;;;;;;;13.84;91.30;98180.97;5047210;28;20585;-71
2022/06/03 03:27:04;;;;;;;3.60;3.30;;;;;;;13.86;90.96;98184.34;5050143;28;20581;-70
2022/06/03 03:29:53;;;;;;;3.13;2.87;;;;;;;13.86;91.02;98184.34;5046115;28;20211;-70
2022/06/03 03:32:33;;;;;;;4.07;3.20;;;;;;;13.89;90.43;98184.13;5054923;28;20226;-70
2022/06/03 03:35:30;;;;;;;3.03;2.83;;;;;;;13.93;90.75;98180.25;5054789;28;20212;-70
2022/06/03 03:38:18;;;;;;;3.47;3.17;;;;;;;13.94;90.66;98176.63;5020749;28;20236;-70
2022/06/03 03:41:11;;;;;;;3.43;3.13;;;;;;;13.96;90.04;98174.66;5050296;28;20247;-71
2022/06/03 03:44:07;;;;;;;3.80;3.50;;;;;;;13.96;89.17;98174.66;5047738;28;20220;-70
2022/06/03 03:47:06;;;;;;;3.70;3.40;;;;;;;13.97;89.17;98181.66;5049614;28;20577;-71
2022/06/03 03:50:07;;;;;;;3.70;3.40;;;;;;;13.99;89.62;98182.41;5046962;28;20678;-71
2022/06/03 03:53:00;;;;;;;3.40;3.10;;;;;;;14.02;89.29;98179.47;5050630;28;20300;-70
2022/06/03 03:55:45;;;;;;;2.97;2.73;;;;;;;14.05;89.18;98179.25;5048850;28;20227;-70
2022/06/03 03:58:42;;;;;;;3.43;3.13;;;;;;;14.13;89.19;98176.78;5048359;28;20306;-70
2022/06/03 04:01:46;;;;;;;3.10;2.90;;;;;;;14.21;88.73;98169.03;5031379;28;20244;-70
2022/06/03 04:04:45;;;;;;;3.30;3.00;;;;;;;14.24;87.71;98172.28;5048757;28;20212;-70
2022/06/03 04:07:39;;;;;;;3.20;3.00;;;;;;;14.23;87.53;98167.13;5047770;28;20258;-71
2022/06/03 04:10:45;;;;;;;3.43;3.20;;;;;;;14.22;88.06;98173.38;5048890;28;20590;-70
2022/06/03 04:13:41;;;;;;;3.67;3.37;;;;;;;14.18;89.04;98174.59;5048730;28;20226;-70
2022/06/03 04:16:48;;;;;;;3.23;3.03;;;;;;;14.15;89.59;98159.75;5048147;28;20223;-70
2022/06/03 04:19:40;;;;;;;3.57;3.27;;;;;;;14.14;89.61;98166.03;5045881;28;20216;-70
2022/06/03 04:22:23;;;;;;;3.77;3.47;;;;;;;14.09;89.59;98164.72;5050361;28;20598;-70
2022/06/03 04:25:12;;;;;;;4.13;3.53;;;;;;;14.09;89.40;98175.34;5047083;28;20220;-70
2022/06/03 04:28:06;;;;;;;10.80;4.10;;;;;;;14.04;89.74;98169.56;5047204;28;20212;-70
2022/06/03 04:30:56;;;;;;;6.73;3.60;;;;;;;14.06;89.70;98170.28;5045622;28;20208;-70
2022/06/03 04:34:07;;;;;;;4.03;3.63;;;;;;;14.03;90.60;98157.25;5053692;28;20222;-70
2022/06/03 04:37:16;;;;;;;3.93;3.63;;;;;;;14.04;90.66;98157.13;5046511;28;20627;-70
2022/06/03 04:40:31;;;;;;;4.13;3.73;;;;;;;14.07;90.65;98151.56;5049234;28;20212;-71
2022/06/03 04:43:42;;;;;;;4.10;3.80;;;;;;;14.17;90.96;98164.94;5049194;28;20226;-70
2022/06/03 04:46:51;;;;;;;4.30;3.90;;;;;;;14.27;90.37;98163.22;5053743;28;20237;-70
2022/06/03 04:50:01;;;;;;;4.10;3.80;;;;;;;14.56;89.23;98164.28;5047086;28;20216;-71
2022/06/03 04:53:18;;;;;;;4.10;3.70;;;;;;;14.92;87.69;98161.16;5047641;28;20212;-71
2022/06/03 04:56:34;;;;;;;4.40;4.00;;;;;;;15.13;86.74;98159.28;5049772;28;20682;-71
2022/06/03 04:59:28;;;;;;;4.10;3.80;;;;;;;15.30;86.02;98161.31;5053520;28;20216;-71
2022/06/03 05:02:38;;;;;;;4.50;4.10;;;;;;;15.85;83.46;98159.00;5053294;28;20235;-72
2022/06/03 05:05:56;;;;;;;4.43;4.03;;;;;;;17.09;77.59;98160.59;5046881;28;20219;-70
2022/06/03 05:09:03;;;;;;;4.57;4.17;;;;;;;18.27;71.68;98155.16;5046561;28;20218;-71
2022/06/03 05:12:03;;;;;;;4.40;4.03;;;;;;;19.25;66.56;98138.72;5051186;28;20216;-70
2022/06/03 05:15:06;;;;;;;4.53;4.10;;;;;;;20.06;62.38;98150.63;5053183;28;20222;-70
2022/06/03 05:18:05;;;;;;;5.00;4.30;;;;;;;20.20;61.66;98163.41;5032616;28;20212;-70
2022/06/03 05:20:51;;;;;;;5.20;4.70;;;;;;;20.13;63.00;98173.97;5053146;28;20213;-70
2022/06/03 05:23:33;;;;;;;4.83;4.33;;;;;;;20.56;61.30;98165.66;5053211;28;20216;-72
2022/06/03 05:26:24;;;;;;;5.03;4.53;;;;;;;20.91;59.27;98165.31;5052983;28;20220;-71
2022/06/03 05:29:25;;;;;;;5.63;5.00;;;;;;;20.63;59.56;98147.00;5048133;28;20211;-70
2022/06/03 05:32:47;;;;;;;5.73;5.00;;;;;;;20.08;61.54;98144.09;5051991;28;20218;-71
2022/06/03 05:35:40;;;;;;;4.80;4.40;;;;;;;20.53;60.62;98149.84;5051088;28;20216;-70
2022/06/03 05:38:35;;;;;;;5.73;4.00;;;;;;;20.76;60.38;98156.22;5052753;28;20242;-70
2022/06/03 05:44:16;;;;;;;11.23;4.57;;;;;;;20.93;61.35;98160.63;5052716;28;20215;-70
2022/06/03 05:46:56;;;;;;;8.53;5.17;;;;;;;21.79;58.37;98166.97;5052886;28;20225;-70
2022/06/03 05:49:37;;;;;;;6.70;5.30;;;;;;;22.80;54.31;98155.91;5052959;28;20592;-70
2022/06/03 05:52:25;;;;;;;7.77;4.83;;;;;;;23.30;53.20;98156.97;5052806;28;20281;-70
2022/06/03 05:55:08;;;;;;;6.50;5.80;;;;;;;23.93;51.50;98162.66;5052747;28;20262;-70
2022/06/03 05:57:39;;;;;;;9.33;7.10;;;;;;;24.51;49.81;98154.34;5052831;28;20212;-70
2022/06/03 06:00:34;;;;;;;7.80;6.97;;;;;;;24.88;49.17;98156.81;5044525;28;20270;-70
2022/06/03 06:03:12;;;;;;;6.37;5.57;;;;;;;25.28;48.55;98158.84;5044791;28;20228;-70
2022/06/03 06:05:48;;;;;;;7.37;6.50;;;;;;;25.21;48.46;98166.06;5050953;28;20208;-70
2022/06/03 06:08:24;;;;;;;9.03;7.20;;;;;;;25.28;48.54;98155.28;5051049;28;20270;-70
2022/06/03 06:11:03;;;;;;;7.03;6.33;;;;;;;25.40;48.27;98151.84;5041120;28;20223;-70
2022/06/03 06:14:06;;;;;;;7.07;6.20;;;;;;;25.95;47.15;98146.34;5049923;28;20216;-70
2022/06/03 06:16:40;;;;;;;8.93;7.67;;;;;;;26.36;44.78;98144.44;5050897;28;20220;-70
2022/06/03 06:19:11;;;;;;;8.30;6.40;;;;;;;26.74;44.23;98148.28;5051086;28;20298;-70
2022/06/03 06:21:57;;;;;;;10.00;7.37;;;;;;;27.01;43.73;98141.81;5054852;28;20232;-71
2022/06/03 06:24:45;;;;;;;6.40;5.80;;;;;;;27.26;43.24;98137.44;5054448;28;20807;-71
2022/06/03 06:27:51;;;;;;;6.07;5.57;;;;;;;27.58;42.54;98129.25;5053452;28;20219;-70
2022/06/03 06:30:34;;;;;;;6.13;5.60;;;;;;;27.27;43.21;98132.84;5051731;28;20700;-72
2022/06/03 06:33:25;;;;;;;6.63;5.20;;;;;;;27.20;43.66;98127.44;5053957;28;20415;-72
2022/06/03 06:36:19;;;;;;;5.93;5.37;;;;;;;27.17;43.37;98133.28;5049297;28;20223;-73
2022/06/03 06:38:59;;;;;;;4.73;4.33;;;;;;;27.49;43.23;98132.41;5049219;28;20220;-71
2022/06/03 06:41:39;;;;;;;6.10;5.50;;;;;;;27.80;42.15;98140.69;5052456;28;20235;-71
2022/06/03 06:44:10;;;;;;;6.03;4.93;;;;;;;28.19;41.44;98140.56;5054540;28;20212;-73
2022/06/03 06:46:53;;;;;;;4.90;4.50;;;;;;;28.32;41.81;98129.63;5054611;28;20216;-72
2022/06/03 06:49:27;;;;;;;5.37;4.87;;;;;;;28.23;42.01;98136.34;5054417;28;20216;-72
2022/06/03 06:52:27;;;;;;;5.63;5.03;;;;;;;27.75;42.66;98132.34;5052667;28;20230;-73
2022/06/03 06:55:01;;;;;;;5.63;5.07;;;;;;;27.43;43.48;98122.38;5054547;28;20216;-73
2022/06/03 06:57:33;;;;;;;5.30;4.77;;;;;;;27.20;44.09;98127.44;5054819;28;20207;-73
2022/06/03 07:00:07;;;;;;;5.90;4.93;;;;;;;27.16;44.49;98130.78;5039704;28;20218;-72
2022/06/03 07:02:41;;;;;;;5.20;4.70;;;;;;;27.03;44.51;98123.47;5053989;28;20729;-72
2022/06/03 07:05:13;;;;;;;5.77;4.13;;;;;;;26.52;46.09;98125.06;5054291;28;20559;-72
2022/06/03 07:07:46;;;;;;;4.47;4.07;;;;;;;26.13;47.47;98132.25;5052809;28;20222;-72
2022/06/03 07:10:20;;;;;;;5.67;5.17;;;;;;;25.34;49.61;98131.00;5054239;28;20564;-73
2022/06/03 07:12:52;;;;;;;6.33;5.30;;;;;;;24.53;52.19;98130.69;5054229;28;20208;-73
2022/06/03 07:15:25;;;;;;;5.50;5.00;;;;;;;24.04;54.31;98137.88;5053775;28;20216;-73
2022/06/03 07:21:09;;;;;;;5.77;5.27;;;;;;;23.48;58.79;98126.91;5048100;28;20215;-71
2022/06/03 07:23:43;;;;;;;5.70;5.20;;;;;;;23.22;58.14;98121.16;5040398;28;20224;-73
2022/06/03 07:26:17;;;;;;;6.03;5.10;;;;;;;23.08;58.83;98114.69;5053858;28;20218;-72
2022/06/03 07:28:51;;;;;;;6.13;5.47;;;;;;;23.05;60.05;98115.03;5054171;28;20222;-72
2022/06/03 07:31:26;;;;;;;6.50;5.90;;;;;;;23.05;59.48;98109.66;5052638;28;20231;-71
2022/06/03 07:34:02;;;;;;;6.57;5.93;;;;;;;23.05;59.43;98104.25;5053877;28;20631;-71
2022/06/03 07:36:45;;;;;;;6.70;5.50;;;;;;;23.00;59.93;98106.69;5053552;28;20219;-72
2022/06/03 07:39:36;;;;;;;6.10;5.40;;;;;;;22.98;59.88;98100.63;5052903;28;20729;-73
2022/06/03 07:42:08;;;;;;;6.67;6.00;;;;;;;22.77;60.68;98105.91;5053246;28;20242;-70
2022/06/03 07:44:56;;;;;;;5.43;4.90;;;;;;;22.72;62.26;98102.06;5051792;28;20220;-71
2022/06/03 07:47:28;;;;;;;6.43;5.37;;;;;;;22.87;62.10;98089.47;5041344;28;20208;-71
2022/06/03 07:49:56;;;;;;;6.40;5.23;;;;;;;22.95;60.76;98095.63;5053544;28;20345;-71
2022/06/03 07:52:33;;;;;;;6.63;6.03;;;;;;;22.99;60.38;98091.50;5053259;28;20212;-72
2022/06/03 07:55:05;;;;;;;7.77;5.37;;;;;;;23.08;61.90;98085.03;5038780;28;20227;-72
2022/06/03 07:57:32;;;;;;;6.37;5.73;;;;;;;23.24;60.07;98082.19;5053275;28;20220;-71
2022/06/03 08:00:01;;;;;;;6.33;5.60;;;;;;;23.29;61.19;98078.94;5053314;28;20594;-71
2022/06/03 08:02:29;;;;;;;5.80;5.10;;;;;;;23.47;60.46;98072.09;5053175;28;20242;-72
2022/06/03 08:05:07;;;;;;;6.40;5.17;;;;;;;23.75;59.43;98069.53;5052888;28;20216;-72
2022/06/03 08:13:07;;;;;;;5.70;5.20;;;;;;;23.93;59.18;98060.06;5052939;28;20358;-72
2022/06/03 08:15:36;;;;;;;5.83;4.70;;;;;;;23.93;58.21;98046.56;5052803;28;20208;-72
2022/06/03 08:18:06;;;;;;;5.87;4.50;;;;;;;24.01;59.54;98046.41;5052933;28;20224;-71
2022/06/03 08:20:36;;;;;;;4.93;4.47;;;;;;;24.16;58.53;98041.81;5052531;28;20220;-72
2022/06/03 08:23:04;;;;;;;4.93;4.33;;;;;;;24.33;57.20;98045.91;5052840;28;20239;-72
2022/06/03 08:25:38;;;;;;;4.80;4.40;;;;;;;24.40;57.12;98045.97;5052613;28;20222;-72
2022/06/03 08:28:09;;;;;;;5.03;4.23;;;;;;;24.59;58.78;98035.38;5052821;28;20212;-72
2022/06/03 08:30:36;;;;;;;5.60;4.33;;;;;;;24.70;56.98;98045.63;5052437;28;20220;-72
2022/06/03 08:33:09;;;;;;;4.03;3.73;;;;;;;24.77;55.75;98041.13;5052771;28;20212;-72
2022/06/03 08:35:42;;;;;;;6.10;4.53;;;;;;;24.87;56.57;98041.59;5052724;28;20218;-72
2022/06/03 08:38:14;;;;;;;4.47;4.03;;;;;;;25.02;53.52;98050.44;5049722;28;20244;-72
2022/06/03 08:40:47;;;;;;;3.43;3.20;;;;;;;25.05;54.96;98047.31;5052583;28;20216;-72
2022/06/03 08:43:27;;;;;;;4.33;4.03;;;;;;;25.20;54.61;98037.25;5051533;28;20242;-72
2022/06/03 08:45:56;;;;;;;5.70;4.33;;;;;;;25.34;52.90;98027.34;5050452;28;20223;-72
2022/06/03 08:48:30;;;;;;;4.00;3.70;;;;;;;25.35;54.36;98026.31;5052368;28;20219;-72
2022/06/03 08:51:00;;;;;;;4.33;3.60;;;;;;;25.38;53.88;98029.47;5052477;28;20212;-72
2022/06/03 08:53:35;;;;;;;4.30;3.90;;;;;;;25.39;53.20;98020.31;5052243;28;20223;-73
2022/06/03 08:56:06;;;;;;;3.87;3.57;;;;;;;25.49;53.73;98022.63;5038650;28;20217;-72
2022/06/03 08:58:41;;;;;;;3.60;3.30;;;;;;;25.68;52.80;98014.59;5052144;28;20696;-73
2022/06/03 09:01:18;;;;;;;3.57;3.27;;;;;;;26.01;51.52;98015.53;5052007;28;20212;-72
2022/06/03 09:03:53;;;;;;;4.87;3.77;;;;;;;26.37;49.36;98007.03;5049577;28;20721;-72
2022/06/03 09:06:34;;;;;;;3.43;3.13;;;;;;;26.72;49.95;98001.22;5051967;28;20216;-72
2022/06/03 09:09:06;;;;;;;4.03;3.67;;;;;;;26.94;48.20;97994.50;5052138;28;20219;-72
2022/06/03 09:11:43;;;;;;;3.33;2.93;;;;;;;26.96;48.70;97989.72;5050675;28;20220;-72
2022/06/03 09:14:13;;;;;;;3.95;3.25;;;;;;;26.94;49.13;97980.94;5051965;28;20211;-72
2022/06/03 09:16:41;;;;;;;3.15;2.88;;;;;;;26.89;50.07;97972.59;5052185;28;20269;-72
2022/06/03 09:19:12;;;;;;;4.30;3.65;;;;;;;26.76;50.22;97975.34;5051751;28;20226;-72
2022/06/03 09:21:43;;;;;;;3.50;3.30;;;;;;;26.69;49.53;97977.22;5051711;28;20223;-72
2022/06/03 09:24:18;;;;;;;3.63;3.33;;;;;;;26.70;51.35;97988.91;5051590;28;20247;-72
2022/06/03 09:26:47;;;;;;;4.35;3.95;;;;;;;26.61;52.04;97980.16;5051528;28;20677;-72
2022/06/03 09:29:17;;;;;;;4.83;4.43;;;;;;;26.89;49.71;97975.31;5049339;28;20225;-73
2022/06/03 09:31:48;;;;;;;4.90;4.13;;;;;;;26.88;49.56;97970.13;5051182;28;20204;-71
2022/06/03 09:34:22;;;;;;;4.82;4.32;;;;;;;26.81;50.96;97974.72;5051429;28;20697;-71
2022/06/03 09:36:49;;;;;;;4.20;3.80;;;;;;;27.15;50.30;97972.53;5051467;28;20318;-72
2022/06/03 09:39:19;;;;;;;4.13;3.83;;;;;;;27.67;48.41;97975.03;5051526;28;20579;-72
2022/06/03 09:41:49;;;;;;;4.13;3.73;;;;;;;27.93;48.20;97983.06;5051673;28;20222;-72
2022/06/03 09:44:21;;;;;;;4.33;3.93;;;;;;;27.89;46.67;97973.72;5051202;28;20604;-72
2022/06/03 09:46:52;;;;;;;4.53;3.85;;;;;;;27.67;47.09;97983.19;5051257;28;20234;-72
2022/06/03 09:49:20;;;;;;;4.57;3.65;;;;;;;27.30;48.10;97986.69;5051452;28;20216;-71
2022/06/03 09:52:00;;;;;;;4.28;3.88;;;;;;;27.17;49.71;97980.47;5051346;28;20232;-72
2022/06/03 09:54:30;;;;;;;3.78;3.40;;;;;;;27.22;48.91;97983.38;5053774;28;20213;-72
2022/06/03 09:57:05;;;;;;;4.00;3.58;;;;;;;27.16;48.49;97976.94;5039785;28;20212;-72
2022/06/03 09:59:34;;;;;;;4.63;4.18;;;;;;;27.27;48.46;97966.25;5055523;28;20211;-72
2022/06/03 10:02:01;;;;;;;4.23;3.83;;;;;;;27.31;49.19;97966.66;5055190;28;20238;-72
2022/06/03 10:04:28;;;;;;;3.55;3.20;;;;;;;27.44;48.62;97966.59;5055016;28;20211;-72
2022/06/03 10:06:59;;;;;;;3.80;3.50;;;;;;;27.58;48.34;97962.78;5055489;28;20212;-72
2022/06/03 10:17:46;;;;;;;3.80;3.50;;;;;;;28.91;44.12;97972.25;5055219;28;20253;-72
2022/06/03 10:20:14;;;;;;;3.42;3.13;;;;;;;28.98;44.22;97973.06;5055030;28;20215;-72
2022/06/03 10:22:41;;;;;;;3.78;3.47;;;;;;;29.23;42.83;97976.53;5053566;28;20228;-71
2022/06/03 10:25:08;;;;;;;2.95;2.70;;;;;;;29.15;43.16;97974.94;5055158;28;20224;-71
2022/06/03 10:27:35;;;;;;;3.38;3.10;;;;;;;29.23;42.31;97971.91;5055203;28;20212;-72
2022/06/03 10:30:03;;;;;;;3.22;3.00;;;;;;;29.17;41.92;97966.56;5054982;28;20205;-73
2022/06/03 10:32:30;;;;;;;3.47;3.17;;;;;;;29.36;42.46;97965.50;5054723;28;20262;-71
2022/06/03 10:35:05;;;;;;;3.08;2.88;;;;;;;29.44;42.19;97954.28;5054897;28;20218;-71
2022/06/03 10:37:34;;;;;;;3.40;3.13;;;;;;;29.45;42.31;97959.50;5055070;28;20298;-72
2022/06/03 10:40:00;;;;;;;3.55;3.22;;;;;;;29.52;42.40;97953.97;5053200;28;20303;-72
2022/06/03 10:42:28;;;;;;;3.70;3.40;;;;;;;29.45;42.17;97958.66;5054563;28;20222;-72
2022/06/03 10:44:57;;;;;;;4.35;3.30;;;;;;;29.62;41.46;97954.28;5054740;28;20216;-73
2022/06/03 10:47:33;;;;;;;3.60;3.30;;;;;;;29.72;40.98;97949.94;5054553;28;20208;-73
2022/06/03 10:50:02;;;;;;;3.00;2.80;;;;;;;29.88;40.78;97959.34;5053363;28;20231;-73
2022/06/03 11:03:34;;;;;;;3.47;3.17;;;;;;;29.96;41.03;97951.69;5054271;28;20238;-71
2022/06/03 11:06:07;;;;;;;3.67;3.38;;;;;;;29.73;41.27;97957.06;5053766;28;20212;-74
2022/06/03 11:08:49;;;;;;;4.28;2.90;;;;;;;29.91;40.65;97964.34;5054568;28;20216;-71
2022/06/03 11:11:31;;;;;;;3.30;2.90;;;;;;;29.84;41.44;97969.06;5054384;28;20216;-71
2022/06/03 11:13:57;;;;;;;3.85;3.00;;;;;;;29.51;41.24;97969.47;5054433;28;20224;-72
2022/06/03 11:16:26;;;;;;;3.10;2.90;;;;;;;29.33;41.72;97976.81;5053087;28;20208;-72
2022/06/03 11:18:54;;;;;;;3.40;3.10;;;;;;;29.10;42.49;97987.59;5054338;28;20420;-72
2022/06/03 11:21:24;;;;;;;3.65;2.95;;;;;;;28.73;42.07;97991.28;5054367;28;20215;-72
2022/06/03 11:23:51;;;;;;;3.30;3.00;;;;;;;28.24;43.24;97989.34;5053707;28;20262;-72
2022/06/03 11:26:19;;;;;;;5.05;3.00;;;;;;;27.90;43.75;97999.81;5054107;28;20220;-72
2022/06/03 11:28:51;;;;;;;4.70;3.20;;;;;;;27.68;45.16;98006.56;5053736;28;20208;-71
2022/06/03 11:31:23;;;;;;;4.30;3.13;;;;;;;27.58;45.76;98006.22;5053886;28;20254;-71
2022/06/03 11:33:54;;;;;;;3.33;3.03;;;;;;;27.36;46.53;97991.28;5053899;28;20204;-71
2022/06/03 11:36:28;;;;;;;4.88;3.30;;;;;;;27.15;47.28;97986.09;5053890;28;20223;-71
2022/06/03 11:38:58;;;;;;;3.70;3.20;;;;;;;26.98;48.52;97993.84;5053360;28;20690;-72
2022/06/03 11:41:31;;;;;;;3.60;3.30;;;;;;;26.80;49.21;98001.00;5052121;28;20208;-72
2022/06/03 11:44:05;;;;;;;4.07;3.43;;;;;;;26.72;50.08;97993.09;5053434;28;20239;-72
2022/06/03 11:46:38;;;;;;;4.20;3.80;;;;;;;26.61;49.92;97991.00;5053760;28;20481;-72
2022/06/03 11:49:07;;;;;;;5.18;3.33;;;;;;;26.40;50.57;97982.22;5039687;28;20218;-72
2022/06/03 11:51:35;;;;;;;3.60;3.30;;;;;;;26.25;50.71;97982.44;5053468;28;20215;-73
2022/06/03 11:54:02;;;;;;;4.83;3.57;;;;;;;26.12;52.33;97979.72;5053514;28;20216;-73
2022/06/03 11:56:35;;;;;;;4.63;3.70;;;;;;;25.08;61.87;97979.34;5053162;28;20212;-72
2022/06/03 11:59:08;;;;;;;4.40;4.00;;;;;;;23.60;73.34;97979.72;5053059;28;20220;-72
2022/06/03 12:01:42;;;;;;;5.00;3.90;;;;;;;22.64;83.68;97981.75;5053121;28;20220;-72
2022/06/03 12:04:18;;;;;;;5.77;4.93;;;;;;;22.23;91.11;97977.75;5053153;28;20246;-72
2022/06/03 12:06:50;;;;;;;5.83;5.27;;;;;;;21.88;94.53;97974.88;5037286;28;20302;-72
2022/06/03 12:09:34;;;;;;;6.37;4.87;;;;;;;21.51;98.09;97964.81;5053358;28;20214;-77
2022/06/03 12:14:58;;;;;;;7.53;6.20;;;;;;;21.07;100.00;97918.06;5041063;28;20286;-76
2022/06/03 12:17:33;;;;;;;7.73;7.03;;;;;;;21.24;100.00;97918.78;5051672;28;20224;-76
2022/06/03 12:20:16;;;;;;;7.37;6.60;;;;;;;21.50;100.00;97908.50;5052924;28;20218;-75
2022/06/03 12:22:43;;;;;;;6.50;5.90;;;;;;;21.53;100.00;97906.31;5040527;28;20317;-78
2022/06/03 12:25:35;;;;;;;7.33;5.73;;;;;;;21.77;100.00;97903.44;5052814;28;20242;-77
2022/06/03 12:28:05;;;;;;;6.60;6.00;;;;;;;22.80;100.00;97898.00;5052425;28;20227;-76
2022/06/03 12:30:42;;;;;;;5.67;5.27;;;;;;;23.73;92.03;97893.50;5052405;28;20216;-76
2022/06/03 12:33:21;;;;;;;5.40;4.90;;;;;;;24.53;82.66;97892.91;5050900;28;20219;-77
2022/06/03 12:36:01;;;;;;;5.60;5.10;;;;;;;25.07;81.06;97906.50;5052370;28;20215;-77
2022/06/03 12:38:53;;;;;;;5.53;4.90;;;;;;;25.31;76.42;97912.22;5052193;28;20240;-76
2022/06/03 12:41:56;;;;;;;5.40;5.00;;;;;;;25.52;74.45;97927.47;5052869;28;20215;-75
2022/06/03 12:44:56;;;;;;;4.67;4.23;;;;;;;25.74;75.08;97932.56;5033435;28;20239;-74
2022/06/03 12:47:50;;;;;;;4.73;4.33;;;;;;;25.72;70.53;97926.50;5052365;28;20208;-76
2022/06/03 12:50:35;;;;;;;5.27;4.67;;;;;;;25.64;69.76;97921.28;5040589;28;20470;-75
2022/06/03 12:53:23;;;;;;;5.40;4.90;;;;;;;25.68;69.50;97927.97;5052240;28;20301;-75
2022/06/03 12:55:55;;;;;;;4.97;4.47;;;;;;;25.46;69.77;97931.84;5051511;28;20227;-74
2022/06/03 12:58:38;;;;;;;5.47;4.73;;;;;;;25.28;68.55;97937.00;5051725;28;20212;-74
2022/06/03 13:01:06;;;;;;;5.40;4.43;;;;;;;25.25;70.47;97937.41;5050439;28;20212;-76
2022/06/03 13:03:43;;;;;;;4.57;4.17;;;;;;;25.27;70.01;97945.31;5050500;28;20297;-73
2022/06/03 13:06:10;;;;;;;4.73;4.20;;;;;;;25.28;68.36;97942.41;5052434;28;20329;-74
2022/06/03 13:09:34;;;;;;;4.30;3.90;;;;;;;25.28;67.49;97942.41;5051855;28;20674;-74
2022/06/03 13:11:43;;;;;;;4.70;4.30;;;;;;;25.27;67.74;97946.16;5050773;28;20289;-73
2022/06/03 13:14:26;;;;;;;4.60;4.20;;;;;;;25.18;66.61;97952.72;5052012;28;20273;-74
2022/06/03 13:16:55;;;;;;;4.57;4.17;;;;;;;25.09;67.41;97961.22;5051980;28;20219;-74
2022/06/03 13:19:45;;;;;;;4.10;3.80;;;;;;;25.03;70.15;97970.97;5051593;28;20331;-73
2022/06/03 13:22:19;;;;;;;4.50;4.10;;;;;;;24.96;73.31;97978.22;5051515;28;20763;-73